CSC8697 ZUUU-ZULS
Flight info
| Callsign | CSC8697 |
|---|---|
| Flight time | 2h 52m |
| Altitude | 34100 |
| Route | MUMGO8T MUMGO B213 LXA |
| Aircraft | A321/M-SDE3FGHIRWY/LB1 |
Departure
| Time | 2026-04-26 10:16 |
|---|---|
| Airport | Chengdu Shuangliu International Airport (ZUUU) |
Arrival
| Time | 2026-04-26 13:09 |
|---|---|
| Airport | Lhasa Gonggar International Airport (ZULS) |
| Time | Latitude | Longitude | Altitude | Speed | Heading |
|---|---|---|---|---|---|
| 2026-04-26 09:53 | 30.57329 | 103.95013 | 1647 ft | 0 kts | 111° |
| 2026-04-26 10:07 | 30.57334 | 103.94999 | 1647 ft | 2 kts | 111° |
| 2026-04-26 10:07 | 30.57340 | 103.94982 | 1647 ft | 2 kts | 111° |
| 2026-04-26 10:07 | 30.57346 | 103.94964 | 1647 ft | 2 kts | 112° |
| 2026-04-26 10:08 | 30.57352 | 103.94947 | 1647 ft | 2 kts | 112° |
| 2026-04-26 10:08 | 30.57358 | 103.94930 | 1647 ft | 2 kts | 112° |
| 2026-04-26 10:08 | 30.57364 | 103.94912 | 1647 ft | 2 kts | 122° |
| 2026-04-26 10:08 | 30.57375 | 103.94899 | 1647 ft | 2 kts | 167° |
| 2026-04-26 10:09 | 30.57391 | 103.94896 | 1647 ft | 2 kts | 175° |
| 2026-04-26 10:09 | 30.57402 | 103.94894 | 1647 ft | 2 kts | 187° |
| 2026-04-26 10:09 | 30.57406 | 103.94895 | 1647 ft | 0 kts | 204° |
| 2026-04-26 10:10 | 30.57396 | 103.94889 | 1647 ft | 8 kts | 204° |
| 2026-04-26 10:10 | 30.57298 | 103.94840 | 1647 ft | 21 kts | 203° |
| 2026-04-26 10:11 | 30.57145 | 103.94768 | 1647 ft | 25 kts | 202° |
| 2026-04-26 10:11 | 30.56986 | 103.94693 | 1647 ft | 11 kts | 202° |
| 2026-04-26 10:11 | 30.56973 | 103.94687 | 1647 ft | 0 kts | 202° |
| 2026-04-26 10:11 | 30.56952 | 103.94683 | 1647 ft | 11 kts | 185° |
| 2026-04-26 10:12 | 30.56844 | 103.94660 | 1647 ft | 14 kts | 201° |
| 2026-04-26 10:12 | 30.56828 | 103.94601 | 1647 ft | 9 kts | 289° |
| 2026-04-26 10:12 | 30.56862 | 103.94478 | 1647 ft | 17 kts | 263° |
| 2026-04-26 10:12 | 30.56763 | 103.94409 | 1648 ft | 18 kts | 201° |
| 2026-04-26 10:13 | 30.56644 | 103.94353 | 1648 ft | 19 kts | 202° |
| 2026-04-26 10:13 | 30.56518 | 103.94295 | 1647 ft | 20 kts | 202° |
| 2026-04-26 10:13 | 30.56389 | 103.94233 | 1648 ft | 21 kts | 202° |
| 2026-04-26 10:13 | 30.56299 | 103.94168 | 1647 ft | 13 kts | 256° |
| 2026-04-26 10:14 | 30.56332 | 103.94068 | 1647 ft | 14 kts | 296° |
| 2026-04-26 10:14 | 30.56414 | 103.94037 | 1648 ft | 13 kts | 22° |
| 2026-04-26 10:14 | 30.56433 | 103.94045 | 1648 ft | 0 kts | 21° |
| 2026-04-26 10:15 | 30.56470 | 103.94062 | 1649 ft | 22 kts | 22° |
| 2026-04-26 10:15 | 30.56777 | 103.94204 | 1649 ft | 74 kts | 21° |
| 2026-04-26 10:15 | 30.57419 | 103.94502 | 1646 ft | 124 kts | 21° |
| 2026-04-26 10:16 | 30.58366 | 103.94940 | 1654 ft | 167 kts | 21° |
| 2026-04-26 10:16 | 30.59434 | 103.95440 | 2197 ft | 164 kts | 22° |
| 2026-04-26 10:16 | 30.60496 | 103.95936 | 2728 ft | 164 kts | 23° |
| 2026-04-26 10:16 | 30.61562 | 103.96431 | 3347 ft | 166 kts | 24° |
| 2026-04-26 10:17 | 30.62683 | 103.96955 | 3704 ft | 184 kts | 22° |
| 2026-04-26 10:17 | 30.63947 | 103.97545 | 3966 ft | 209 kts | 22° |
| 2026-04-26 10:17 | 30.65373 | 103.98212 | 4357 ft | 233 kts | 22° |
| 2026-04-26 10:17 | 30.66941 | 103.98944 | 4901 ft | 250 kts | 22° |
| 2026-04-26 10:18 | 30.68477 | 103.99878 | 5698 ft | 257 kts | 40° |
| 2026-04-26 10:18 | 30.69629 | 104.01485 | 6532 ft | 262 kts | 55° |
| 2026-04-26 10:18 | 30.70564 | 104.03329 | 7342 ft | 266 kts | 60° |
| 2026-04-26 10:18 | 30.71434 | 104.05254 | 8133 ft | 271 kts | 60° |
| 2026-04-26 10:19 | 30.72313 | 104.07217 | 8915 ft | 276 kts | 60° |
| 2026-04-26 10:19 | 30.73231 | 104.09204 | 9695 ft | 281 kts | 59° |
| 2026-04-26 10:19 | 30.74186 | 104.11205 | 10385 ft | 285 kts | 58° |
| 2026-04-26 10:19 | 30.75172 | 104.13218 | 11099 ft | 287 kts | 59° |
| 2026-04-26 10:20 | 30.75946 | 104.15364 | 11801 ft | 294 kts | 79° |
| 2026-04-26 10:20 | 30.75811 | 104.17753 | 12446 ft | 304 kts | 106° |
| 2026-04-26 10:20 | 30.74719 | 104.19878 | 13080 ft | 315 kts | 134° |
| 2026-04-26 10:20 | 30.72850 | 104.21222 | 13697 ft | 323 kts | 163° |
| 2026-04-26 10:21 | 30.70631 | 104.21370 | 14316 ft | 322 kts | 193° |
| 2026-04-26 10:21 | 30.68619 | 104.20286 | 14942 ft | 321 kts | 221° |
| 2026-04-26 10:21 | 30.67175 | 104.18321 | 15560 ft | 321 kts | 236° |
| 2026-04-26 10:21 | 30.65882 | 104.16246 | 16201 ft | 322 kts | 236° |
| 2026-04-26 10:22 | 30.64574 | 104.14128 | 16816 ft | 324 kts | 236° |
| 2026-04-26 10:22 | 30.63259 | 104.12002 | 17464 ft | 324 kts | 236° |
| 2026-04-26 10:22 | 30.61938 | 104.09875 | 18092 ft | 326 kts | 235° |
| 2026-04-26 10:22 | 30.60603 | 104.07733 | 18599 ft | 328 kts | 235° |
| 2026-04-26 10:23 | 30.59251 | 104.05575 | 19079 ft | 331 kts | 235° |
| 2026-04-26 10:23 | 30.57888 | 104.03402 | 19574 ft | 334 kts | 235° |
| 2026-04-26 10:23 | 30.56512 | 104.01214 | 20054 ft | 337 kts | 235° |
| 2026-04-26 10:23 | 30.55123 | 103.99003 | 20516 ft | 340 kts | 235° |
| 2026-04-26 10:24 | 30.53731 | 103.96784 | 21032 ft | 341 kts | 235° |
| 2026-04-26 10:24 | 30.52555 | 103.94395 | 21475 ft | 342 kts | 250° |
| 2026-04-26 10:24 | 30.52022 | 103.91714 | 21945 ft | 343 kts | 266° |
| 2026-04-26 10:24 | 30.52172 | 103.88945 | 22230 ft | 350 kts | 282° |
| 2026-04-26 10:25 | 30.53038 | 103.86300 | 22372 ft | 363 kts | 300° |
| 2026-04-26 10:25 | 30.54536 | 103.83878 | 22503 ft | 375 kts | 306° |
| 2026-04-26 10:25 | 30.56148 | 103.81443 | 22638 ft | 386 kts | 306° |
| 2026-04-26 10:25 | 30.57798 | 103.78938 | 22919 ft | 393 kts | 306° |
| 2026-04-26 10:26 | 30.59461 | 103.76400 | 23317 ft | 397 kts | 306° |
| 2026-04-26 10:26 | 30.61131 | 103.73839 | 23684 ft | 399 kts | 306° |
| 2026-04-26 10:26 | 30.62809 | 103.71256 | 24050 ft | 401 kts | 305° |
| 2026-04-26 10:26 | 30.64269 | 103.68490 | 24410 ft | 402 kts | 295° |
| 2026-04-26 10:27 | 30.65290 | 103.65474 | 24780 ft | 402 kts | 285° |
| 2026-04-26 10:27 | 30.66048 | 103.62336 | 25155 ft | 404 kts | 285° |
| 2026-04-26 10:27 | 30.66809 | 103.59183 | 25527 ft | 405 kts | 285° |
| 2026-04-26 10:27 | 30.67572 | 103.56026 | 25894 ft | 407 kts | 285° |
| 2026-04-26 10:28 | 30.68329 | 103.52894 | 26252 ft | 409 kts | 285° |
| 2026-04-26 10:28 | 30.69099 | 103.49711 | 26608 ft | 410 kts | 285° |
| 2026-04-26 10:28 | 30.69871 | 103.46519 | 27028 ft | 411 kts | 285° |
| 2026-04-26 10:28 | 30.70645 | 103.43318 | 27411 ft | 412 kts | 285° |
| 2026-04-26 10:29 | 30.71420 | 103.40103 | 27794 ft | 413 kts | 285° |
| 2026-04-26 10:29 | 30.72195 | 103.36881 | 28151 ft | 415 kts | 285° |
| 2026-04-26 10:29 | 30.72975 | 103.33638 | 28561 ft | 417 kts | 285° |
| 2026-04-26 10:29 | 30.73760 | 103.30380 | 28930 ft | 419 kts | 285° |
| 2026-04-26 10:30 | 30.74546 | 103.27114 | 29277 ft | 420 kts | 285° |
| 2026-04-26 10:30 | 30.75324 | 103.23871 | 29624 ft | 422 kts | 285° |
| 2026-04-26 10:30 | 30.76111 | 103.20575 | 30000 ft | 424 kts | 285° |
| 2026-04-26 10:30 | 30.76904 | 103.17254 | 30293 ft | 425 kts | 285° |
| 2026-04-26 10:31 | 30.77698 | 103.13922 | 30574 ft | 427 kts | 285° |
| 2026-04-26 10:31 | 30.78488 | 103.10591 | 30851 ft | 428 kts | 285° |
| 2026-04-26 10:31 | 30.79284 | 103.07239 | 31130 ft | 430 kts | 285° |
| 2026-04-26 10:31 | 30.80064 | 103.03881 | 31413 ft | 431 kts | 283° |
| 2026-04-26 10:32 | 30.80506 | 103.00483 | 31732 ft | 430 kts | 274° |
| 2026-04-26 10:32 | 30.80524 | 102.97007 | 32115 ft | 430 kts | 270° |
| 2026-04-26 10:32 | 30.80462 | 102.93536 | 32503 ft | 428 kts | 270° |
| 2026-04-26 10:32 | 30.80405 | 102.90071 | 32876 ft | 427 kts | 270° |
| 2026-04-26 10:33 | 30.80347 | 102.86616 | 33269 ft | 426 kts | 270° |
| 2026-04-26 10:33 | 30.80287 | 102.83168 | 33642 ft | 425 kts | 270° |
| 2026-04-26 10:33 | 30.80224 | 102.79723 | 33981 ft | 425 kts | 270° |
| 2026-04-26 10:33 | 30.80164 | 102.76298 | 34034 ft | 420 kts | 270° |
| 2026-04-26 10:34 | 30.80041 | 102.69586 | 34056 ft | 413 kts | 270° |
| 2026-04-26 10:34 | 30.79910 | 102.62923 | 34056 ft | 412 kts | 270° |
| 2026-04-26 10:35 | 30.79772 | 102.56253 | 34034 ft | 412 kts | 270° |
| 2026-04-26 10:35 | 30.79637 | 102.49639 | 34045 ft | 412 kts | 270° |
| 2026-04-26 10:36 | 30.79500 | 102.42974 | 34016 ft | 411 kts | 270° |
| 2026-04-26 10:36 | 30.79358 | 102.36333 | 34012 ft | 411 kts | 269° |
| 2026-04-26 10:37 | 30.79217 | 102.29731 | 33983 ft | 411 kts | 269° |
| 2026-04-26 10:37 | 30.79067 | 102.23084 | 33982 ft | 411 kts | 269° |
| 2026-04-26 10:38 | 30.78908 | 102.16439 | 33946 ft | 411 kts | 269° |
| 2026-04-26 10:38 | 30.78753 | 102.09791 | 33944 ft | 411 kts | 269° |
| 2026-04-26 10:39 | 30.78595 | 102.03148 | 33916 ft | 411 kts | 269° |
| 2026-04-26 10:39 | 30.78437 | 101.96496 | 33920 ft | 412 kts | 269° |
| 2026-04-26 10:40 | 30.78336 | 101.89837 | 33920 ft | 411 kts | 274° |
| 2026-04-26 10:40 | 30.78879 | 101.83263 | 33927 ft | 412 kts | 276° |
| 2026-04-26 10:41 | 30.79424 | 101.76624 | 33929 ft | 412 kts | 276° |
| 2026-04-26 10:41 | 30.79970 | 101.69992 | 33935 ft | 412 kts | 276° |
| 2026-04-26 10:42 | 30.80518 | 101.63341 | 33929 ft | 414 kts | 275° |
| 2026-04-26 10:42 | 30.81070 | 101.56653 | 33928 ft | 416 kts | 275° |
| 2026-04-26 10:43 | 30.81616 | 101.49969 | 33930 ft | 418 kts | 275° |
| 2026-04-26 10:43 | 30.82153 | 101.43221 | 33931 ft | 419 kts | 275° |
| 2026-04-26 10:44 | 30.82697 | 101.36458 | 33933 ft | 420 kts | 275° |
| 2026-04-26 10:44 | 30.83234 | 101.29693 | 33934 ft | 420 kts | 275° |
| 2026-04-26 10:45 | 30.83768 | 101.22944 | 33945 ft | 418 kts | 275° |
| 2026-04-26 10:45 | 30.84299 | 101.16205 | 33950 ft | 417 kts | 275° |
| 2026-04-26 10:46 | 30.84825 | 101.09530 | 33945 ft | 416 kts | 275° |
| 2026-04-26 10:46 | 30.85347 | 101.02822 | 33939 ft | 416 kts | 275° |
| 2026-04-26 10:47 | 30.85866 | 100.96107 | 33927 ft | 416 kts | 275° |
| 2026-04-26 10:47 | 30.86379 | 100.89394 | 33925 ft | 416 kts | 275° |
| 2026-04-26 10:48 | 30.86882 | 100.82736 | 33924 ft | 416 kts | 275° |
| 2026-04-26 10:48 | 30.87389 | 100.76027 | 33923 ft | 416 kts | 275° |
| 2026-04-26 10:49 | 30.87889 | 100.69315 | 33915 ft | 416 kts | 275° |
| 2026-04-26 10:49 | 30.88391 | 100.62606 | 33916 ft | 416 kts | 275° |
| 2026-04-26 10:50 | 30.88807 | 100.57029 | 33896 ft | 416 kts | 275° |
| 2026-04-26 10:50 | 30.89385 | 100.49185 | 33889 ft | 417 kts | 275° |
| 2026-04-26 10:51 | 30.90119 | 100.39081 | 33866 ft | 418 kts | 275° |
| 2026-04-26 10:52 | 30.90599 | 100.32369 | 33867 ft | 418 kts | 275° |
| 2026-04-26 10:52 | 30.91083 | 100.25619 | 33860 ft | 418 kts | 275° |
| 2026-04-26 10:53 | 30.91565 | 100.18868 | 33861 ft | 418 kts | 275° |
| 2026-04-26 10:53 | 30.92041 | 100.12111 | 33871 ft | 418 kts | 275° |
| 2026-04-26 10:54 | 30.92749 | 100.01960 | 33872 ft | 419 kts | 275° |
| 2026-04-26 10:54 | 30.93237 | 99.95241 | 33892 ft | 419 kts | 276° |
| 2026-04-26 10:55 | 30.93787 | 99.88487 | 33887 ft | 419 kts | 276° |
| 2026-04-26 10:55 | 30.94251 | 99.82871 | 33892 ft | 419 kts | 276° |
| 2026-04-26 10:56 | 30.94881 | 99.74964 | 33898 ft | 419 kts | 276° |
| 2026-04-26 10:56 | 30.95408 | 99.68200 | 33905 ft | 419 kts | 276° |
| 2026-04-26 10:57 | 30.95918 | 99.61474 | 33902 ft | 420 kts | 276° |
| 2026-04-26 10:57 | 30.96435 | 99.54698 | 33903 ft | 419 kts | 276° |
| 2026-04-26 10:58 | 30.96954 | 99.47922 | 33898 ft | 420 kts | 276° |
| 2026-04-26 10:58 | 30.97470 | 99.41140 | 33897 ft | 420 kts | 276° |
| 2026-04-26 10:59 | 30.97984 | 99.34362 | 33878 ft | 420 kts | 276° |
| 2026-04-26 10:59 | 30.98487 | 99.27633 | 33882 ft | 420 kts | 276° |
| 2026-04-26 11:00 | 30.98990 | 99.20849 | 33862 ft | 420 kts | 276° |
| 2026-04-26 11:00 | 30.99491 | 99.14068 | 33868 ft | 420 kts | 276° |
| 2026-04-26 11:01 | 30.99900 | 99.08440 | 33855 ft | 420 kts | 275° |
| 2026-04-26 11:01 | 31.00478 | 99.00504 | 33843 ft | 421 kts | 275° |
| 2026-04-26 11:02 | 31.00889 | 98.94849 | 33845 ft | 422 kts | 275° |
| 2026-04-26 11:02 | 31.01453 | 98.86925 | 33839 ft | 422 kts | 275° |
| 2026-04-26 11:03 | 31.01856 | 98.81207 | 33838 ft | 423 kts | 275° |
| 2026-04-26 11:03 | 31.02341 | 98.74380 | 33846 ft | 422 kts | 275° |
| 2026-04-26 11:04 | 31.02823 | 98.67553 | 33855 ft | 422 kts | 276° |
| 2026-04-26 11:04 | 31.03334 | 98.60728 | 33868 ft | 422 kts | 276° |
| 2026-04-26 11:05 | 31.03920 | 98.53924 | 33869 ft | 422 kts | 277° |
| 2026-04-26 11:05 | 31.04505 | 98.47119 | 33872 ft | 422 kts | 276° |
| 2026-04-26 11:06 | 31.05064 | 98.40362 | 33872 ft | 421 kts | 276° |
| 2026-04-26 11:06 | 31.05617 | 98.33557 | 33866 ft | 422 kts | 276° |
| 2026-04-26 11:07 | 31.06164 | 98.26763 | 33883 ft | 420 kts | 276° |
| 2026-04-26 11:07 | 31.06710 | 98.19970 | 33890 ft | 419 kts | 276° |
| 2026-04-26 11:08 | 31.07253 | 98.13197 | 33896 ft | 419 kts | 276° |
| 2026-04-26 11:08 | 31.07793 | 98.06477 | 33895 ft | 418 kts | 276° |
| 2026-04-26 11:09 | 31.08339 | 97.99706 | 33903 ft | 418 kts | 276° |
| 2026-04-26 11:09 | 31.08885 | 97.92954 | 33904 ft | 418 kts | 276° |
| 2026-04-26 11:10 | 31.09421 | 97.86209 | 33905 ft | 417 kts | 276° |
| 2026-04-26 11:10 | 31.09954 | 97.79459 | 33904 ft | 417 kts | 276° |
| 2026-04-26 11:11 | 31.10482 | 97.72720 | 33879 ft | 417 kts | 276° |
| 2026-04-26 11:11 | 31.11011 | 97.65990 | 33877 ft | 417 kts | 276° |
| 2026-04-26 11:12 | 31.11528 | 97.59297 | 33890 ft | 417 kts | 276° |
| 2026-04-26 11:12 | 31.12046 | 97.52559 | 33857 ft | 417 kts | 276° |
| 2026-04-26 11:13 | 31.12557 | 97.45822 | 33858 ft | 417 kts | 276° |
| 2026-04-26 11:13 | 31.13068 | 97.39085 | 33855 ft | 417 kts | 276° |
| 2026-04-26 11:14 | 31.13579 | 97.32340 | 33854 ft | 417 kts | 276° |
| 2026-04-26 11:14 | 31.14082 | 97.25607 | 33836 ft | 416 kts | 276° |
| 2026-04-26 11:15 | 31.14485 | 97.18862 | 33837 ft | 417 kts | 269° |
| 2026-04-26 11:15 | 31.13486 | 97.12165 | 33836 ft | 420 kts | 257° |
| 2026-04-26 11:16 | 31.12076 | 97.05561 | 33829 ft | 419 kts | 258° |
| 2026-04-26 11:16 | 31.10673 | 96.98994 | 33845 ft | 420 kts | 258° |
| 2026-04-26 11:17 | 31.09253 | 96.92378 | 33848 ft | 420 kts | 258° |
| 2026-04-26 11:17 | 31.07832 | 96.85765 | 33854 ft | 420 kts | 258° |
| 2026-04-26 11:18 | 31.06403 | 96.79158 | 33855 ft | 420 kts | 258° |
| 2026-04-26 11:18 | 31.04973 | 96.72546 | 33855 ft | 421 kts | 258° |
| 2026-04-26 11:19 | 31.03535 | 96.65911 | 33859 ft | 422 kts | 258° |
| 2026-04-26 11:19 | 31.02089 | 96.59288 | 33861 ft | 422 kts | 258° |
| 2026-04-26 11:20 | 31.00882 | 96.53771 | 33871 ft | 422 kts | 258° |
| 2026-04-26 11:20 | 30.99179 | 96.46021 | 33866 ft | 422 kts | 258° |
| 2026-04-26 11:21 | 30.97728 | 96.39381 | 33865 ft | 423 kts | 258° |
| 2026-04-26 11:21 | 30.96319 | 96.32720 | 33865 ft | 424 kts | 258° |
| 2026-04-26 11:22 | 30.94926 | 96.26041 | 33864 ft | 424 kts | 258° |
| 2026-04-26 11:22 | 30.93520 | 96.19369 | 33863 ft | 424 kts | 258° |
| 2026-04-26 11:23 | 30.92107 | 96.12742 | 33873 ft | 425 kts | 258° |
| 2026-04-26 11:23 | 30.90672 | 96.06075 | 33872 ft | 424 kts | 258° |
| 2026-04-26 11:24 | 30.89244 | 95.99416 | 33881 ft | 423 kts | 259° |
| 2026-04-26 11:24 | 30.87824 | 95.92769 | 33887 ft | 423 kts | 258° |
| 2026-04-26 11:25 | 30.86396 | 95.86141 | 33886 ft | 422 kts | 258° |
| 2026-04-26 11:25 | 30.84965 | 95.79508 | 33886 ft | 422 kts | 258° |
| 2026-04-26 11:26 | 30.83530 | 95.72894 | 33917 ft | 421 kts | 259° |
| 2026-04-26 11:26 | 30.82145 | 95.66278 | 33930 ft | 420 kts | 260° |
| 2026-04-26 11:27 | 30.80807 | 95.59677 | 33947 ft | 418 kts | 260° |
| 2026-04-26 11:27 | 30.79466 | 95.53110 | 33950 ft | 417 kts | 259° |
| 2026-04-26 11:28 | 30.78109 | 95.46559 | 33961 ft | 416 kts | 259° |
| 2026-04-26 11:28 | 30.76759 | 95.40065 | 33958 ft | 416 kts | 259° |
| 2026-04-26 11:29 | 30.75394 | 95.33531 | 33959 ft | 416 kts | 259° |
| 2026-04-26 11:29 | 30.74029 | 95.27008 | 34034 ft | 415 kts | 259° |
| 2026-04-26 11:30 | 30.72898 | 95.21602 | 34032 ft | 414 kts | 259° |
| 2026-04-26 11:30 | 30.71299 | 95.14005 | 34050 ft | 413 kts | 259° |
| 2026-04-26 11:31 | 30.69939 | 95.07524 | 34046 ft | 413 kts | 259° |
| 2026-04-26 11:31 | 30.68568 | 95.01047 | 34055 ft | 413 kts | 259° |
| 2026-04-26 11:32 | 30.67192 | 94.94565 | 34041 ft | 412 kts | 258° |
| 2026-04-26 11:32 | 30.65817 | 94.88091 | 34040 ft | 413 kts | 258° |
| 2026-04-26 11:33 | 30.64444 | 94.81658 | 34073 ft | 413 kts | 258° |
| 2026-04-26 11:33 | 30.63058 | 94.75186 | 34074 ft | 413 kts | 258° |
| 2026-04-26 11:34 | 30.61673 | 94.68712 | 34068 ft | 413 kts | 258° |
| 2026-04-26 11:34 | 30.60285 | 94.62241 | 34067 ft | 414 kts | 258° |
| 2026-04-26 11:35 | 30.58892 | 94.55773 | 34071 ft | 413 kts | 258° |
| 2026-04-26 11:35 | 30.57728 | 94.50373 | 34093 ft | 411 kts | 258° |
| 2026-04-26 11:36 | 30.56121 | 94.42923 | 34094 ft | 409 kts | 258° |
| 2026-04-26 11:36 | 30.54734 | 94.36541 | 34086 ft | 407 kts | 258° |
| 2026-04-26 11:37 | 30.53343 | 94.30163 | 34079 ft | 407 kts | 258° |
| 2026-04-26 11:37 | 30.51957 | 94.23799 | 34076 ft | 407 kts | 258° |
| 2026-04-26 11:38 | 30.50574 | 94.17434 | 34071 ft | 407 kts | 258° |
| 2026-04-26 11:38 | 30.49250 | 94.11061 | 34068 ft | 406 kts | 259° |
| 2026-04-26 11:39 | 30.47948 | 94.04686 | 34066 ft | 406 kts | 258° |
| 2026-04-26 11:39 | 30.46631 | 93.98307 | 34063 ft | 406 kts | 258° |
| 2026-04-26 11:40 | 30.45298 | 93.91942 | 34045 ft | 406 kts | 258° |
| 2026-04-26 11:40 | 30.43971 | 93.85624 | 34039 ft | 406 kts | 258° |
| 2026-04-26 11:42 | 30.38674 | 93.60557 | 34028 ft | 371 kts | 258° |
| 2026-04-26 11:43 | 30.38327 | 93.57641 | 34030 ft | 363 kts | 273° |
| 2026-04-26 11:43 | 30.38758 | 93.54785 | 34028 ft | 361 kts | 289° |
| 2026-04-26 11:43 | 30.39931 | 93.52215 | 34031 ft | 363 kts | 306° |
| 2026-04-26 11:43 | 30.41756 | 93.50179 | 34003 ft | 368 kts | 324° |
| 2026-04-26 11:44 | 30.44083 | 93.48906 | 34005 ft | 375 kts | 342° |
| 2026-04-26 11:44 | 30.46701 | 93.48557 | 34006 ft | 384 kts | 0° |
| 2026-04-26 11:44 | 30.49329 | 93.49227 | 34008 ft | 393 kts | 20° |
| 2026-04-26 11:44 | 30.51659 | 93.50932 | 34005 ft | 403 kts | 41° |
| 2026-04-26 11:45 | 30.53372 | 93.53518 | 34030 ft | 409 kts | 62° |
| 2026-04-26 11:45 | 30.54328 | 93.56632 | 34027 ft | 411 kts | 72° |
| 2026-04-26 11:45 | 30.55714 | 93.63032 | 34013 ft | 413 kts | 76° |
| 2026-04-26 11:46 | 30.56712 | 93.69604 | 33999 ft | 415 kts | 93° |
| 2026-04-26 11:46 | 30.56129 | 93.72860 | 34002 ft | 412 kts | 115° |
| 2026-04-26 11:46 | 30.54644 | 93.75660 | 33999 ft | 406 kts | 136° |
| 2026-04-26 11:47 | 30.52447 | 93.77647 | 34036 ft | 401 kts | 158° |
| 2026-04-26 11:47 | 30.49824 | 93.78625 | 34037 ft | 393 kts | 178° |
| 2026-04-26 11:47 | 30.47133 | 93.78530 | 34036 ft | 384 kts | 198° |
| 2026-04-26 11:47 | 30.44685 | 93.77433 | 34033 ft | 375 kts | 217° |
| 2026-04-26 11:48 | 30.42714 | 93.75518 | 34032 ft | 368 kts | 234° |
| 2026-04-26 11:48 | 30.41384 | 93.73028 | 34028 ft | 362 kts | 251° |
| 2026-04-26 11:48 | 30.40123 | 93.67399 | 34031 ft | 362 kts | 258° |
| 2026-04-26 11:49 | 30.38935 | 93.61731 | 34033 ft | 362 kts | 258° |
| 2026-04-26 11:49 | 30.38530 | 93.56051 | 34024 ft | 358 kts | 284° |
| 2026-04-26 11:50 | 30.39448 | 93.53382 | 34017 ft | 359 kts | 301° |
| 2026-04-26 11:50 | 30.41079 | 93.51191 | 34011 ft | 363 kts | 320° |
| 2026-04-26 11:50 | 30.43278 | 93.49744 | 33982 ft | 369 kts | 338° |
| 2026-04-26 11:50 | 30.45814 | 93.49230 | 33978 ft | 377 kts | 358° |
| 2026-04-26 11:51 | 30.47589 | 93.49470 | 33978 ft | 383 kts | 11° |
| 2026-04-26 11:51 | 30.50042 | 93.50722 | 33989 ft | 393 kts | 32° |
| 2026-04-26 11:51 | 30.52488 | 93.53885 | 34033 ft | 408 kts | 62° |
| 2026-04-26 11:51 | 30.53172 | 93.55968 | 34041 ft | 411 kts | 73° |
| 2026-04-26 11:52 | 30.54589 | 93.62397 | 34038 ft | 415 kts | 76° |
| 2026-04-26 11:52 | 30.55694 | 93.68967 | 34029 ft | 416 kts | 90° |
| 2026-04-26 11:53 | 30.55210 | 93.72251 | 34038 ft | 414 kts | 114° |
| 2026-04-26 11:53 | 30.53733 | 93.75075 | 34035 ft | 409 kts | 137° |
| 2026-04-26 11:53 | 30.50672 | 93.77441 | 34027 ft | 396 kts | 166° |
| 2026-04-26 11:54 | 30.46245 | 93.77625 | 34033 ft | 379 kts | 201° |
| 2026-04-26 11:54 | 30.43915 | 93.76361 | 34030 ft | 372 kts | 220° |
| 2026-04-26 11:54 | 30.42096 | 93.74285 | 34036 ft | 365 kts | 239° |
| 2026-04-26 11:54 | 30.41007 | 93.71668 | 34033 ft | 360 kts | 257° |
| 2026-04-26 11:55 | 30.40416 | 93.68847 | 34030 ft | 361 kts | 258° |
| 2026-04-26 11:55 | 30.39239 | 93.63179 | 34035 ft | 362 kts | 258° |
| 2026-04-26 11:56 | 30.38368 | 93.57467 | 34027 ft | 359 kts | 275° |
| 2026-04-26 11:56 | 30.38895 | 93.54659 | 34023 ft | 358 kts | 292° |
| 2026-04-26 11:56 | 30.40190 | 93.52204 | 34018 ft | 360 kts | 310° |
| 2026-04-26 11:56 | 30.42107 | 93.50374 | 33987 ft | 365 kts | 329° |
| 2026-04-26 11:57 | 30.44504 | 93.49364 | 33984 ft | 372 kts | 348° |
| 2026-04-26 11:57 | 30.47118 | 93.49351 | 33984 ft | 381 kts | 7° |
| 2026-04-26 11:57 | 30.49625 | 93.50407 | 33986 ft | 390 kts | 28° |
| 2026-04-26 11:57 | 30.51700 | 93.52490 | 34045 ft | 403 kts | 51° |
| 2026-04-26 11:58 | 30.53013 | 93.55378 | 34044 ft | 410 kts | 71° |
| 2026-04-26 11:58 | 30.54472 | 93.61811 | 34042 ft | 414 kts | 75° |
| 2026-04-26 11:59 | 30.55665 | 93.68347 | 34034 ft | 415 kts | 86° |
| 2026-04-26 11:59 | 30.55378 | 93.71657 | 34043 ft | 414 kts | 109° |
| 2026-04-26 11:59 | 30.54102 | 93.74563 | 34040 ft | 409 kts | 132° |
| 2026-04-26 11:59 | 30.52002 | 93.76718 | 34037 ft | 401 kts | 155° |
| 2026-04-26 12:00 | 30.49402 | 93.77826 | 34025 ft | 389 kts | 177° |
| 2026-04-26 12:00 | 30.46748 | 93.77778 | 34028 ft | 379 kts | 198° |
| 2026-04-26 12:00 | 30.44350 | 93.76704 | 34043 ft | 373 kts | 217° |
| 2026-04-26 12:00 | 30.42396 | 93.74736 | 34043 ft | 366 kts | 236° |
| 2026-04-26 12:01 | 30.41172 | 93.72238 | 34037 ft | 361 kts | 253° |
| 2026-04-26 12:01 | 30.39940 | 93.66608 | 34036 ft | 361 kts | 258° |
| 2026-04-26 12:02 | 30.38764 | 93.60954 | 34037 ft | 361 kts | 258° |
| 2026-04-26 12:02 | 30.38352 | 93.58094 | 34031 ft | 359 kts | 271° |
| 2026-04-26 12:02 | 30.38707 | 93.55253 | 34030 ft | 358 kts | 289° |
| 2026-04-26 12:02 | 30.39850 | 93.52707 | 34023 ft | 359 kts | 307° |
| 2026-04-26 12:03 | 30.41670 | 93.50719 | 33995 ft | 364 kts | 325° |
| 2026-04-26 12:03 | 30.43989 | 93.49522 | 33988 ft | 370 kts | 344° |
| 2026-04-26 12:03 | 30.46571 | 93.49292 | 33986 ft | 378 kts | 4° |
| 2026-04-26 12:03 | 30.49123 | 93.50138 | 33985 ft | 387 kts | 25° |
| 2026-04-26 12:04 | 30.51305 | 93.52032 | 34048 ft | 400 kts | 46° |
| 2026-04-26 12:04 | 30.52785 | 93.54788 | 34048 ft | 408 kts | 69° |
| 2026-04-26 12:04 | 30.53600 | 93.57952 | 34042 ft | 412 kts | 74° |
| 2026-04-26 12:05 | 30.54950 | 93.64427 | 34045 ft | 413 kts | 76° |
| 2026-04-26 12:05 | 30.55484 | 93.70962 | 34042 ft | 413 kts | 104° |
| 2026-04-26 12:05 | 30.54395 | 93.74014 | 34045 ft | 410 kts | 127° |
| 2026-04-26 12:06 | 30.52434 | 93.76347 | 34037 ft | 402 kts | 150° |
| 2026-04-26 12:06 | 30.49934 | 93.77653 | 34029 ft | 390 kts | 172° |
| 2026-04-26 12:06 | 30.47278 | 93.77844 | 34022 ft | 379 kts | 193° |
| 2026-04-26 12:06 | 30.44781 | 93.76965 | 34037 ft | 373 kts | 213° |
| 2026-04-26 12:07 | 30.42728 | 93.75187 | 34035 ft | 366 kts | 232° |
| 2026-04-26 12:07 | 30.41345 | 93.72760 | 34034 ft | 361 kts | 250° |
| 2026-04-26 12:07 | 30.40557 | 93.70009 | 34034 ft | 360 kts | 256° |
| 2026-04-26 12:08 | 30.39348 | 93.64373 | 34038 ft | 360 kts | 259° |
| 2026-04-26 12:08 | 30.38342 | 93.58692 | 34031 ft | 359 kts | 268° |
| 2026-04-26 12:08 | 30.38570 | 93.55831 | 34032 ft | 358 kts | 285° |
| 2026-04-26 12:09 | 30.39574 | 93.53210 | 34025 ft | 359 kts | 303° |
| 2026-04-26 12:09 | 30.41266 | 93.51087 | 34019 ft | 362 kts | 321° |
| 2026-04-26 12:09 | 30.43471 | 93.49727 | 33994 ft | 368 kts | 340° |
| 2026-04-26 12:09 | 30.46022 | 93.49308 | 33990 ft | 376 kts | 360° |
| 2026-04-26 12:10 | 30.48598 | 93.49948 | 33986 ft | 385 kts | 20° |
| 2026-04-26 12:10 | 30.50873 | 93.51645 | 34046 ft | 397 kts | 42° |
| 2026-04-26 12:10 | 30.52518 | 93.54246 | 34046 ft | 406 kts | 65° |
| 2026-04-26 12:11 | 30.54107 | 93.60589 | 34045 ft | 412 kts | 75° |
| 2026-04-26 12:11 | 30.55387 | 93.67090 | 34042 ft | 413 kts | 78° |
| 2026-04-26 12:11 | 30.55497 | 93.70404 | 34043 ft | 413 kts | 101° |
| 2026-04-26 12:12 | 30.54571 | 93.73525 | 34051 ft | 410 kts | 124° |
| 2026-04-26 12:12 | 30.52740 | 93.75996 | 34045 ft | 402 kts | 147° |
| 2026-04-26 12:12 | 30.50310 | 93.77474 | 34033 ft | 391 kts | 169° |
| 2026-04-26 12:12 | 30.48557 | 93.77839 | 34027 ft | 383 kts | 183° |
| 2026-04-26 12:13 | 30.45161 | 93.77130 | 34040 ft | 373 kts | 210° |
| 2026-04-26 12:13 | 30.43028 | 93.75491 | 34039 ft | 366 kts | 229° |
| 2026-04-26 12:13 | 30.41505 | 93.73126 | 34039 ft | 360 kts | 247° |
| 2026-04-26 12:14 | 30.40003 | 93.67648 | 34041 ft | 360 kts | 257° |
| 2026-04-26 12:14 | 30.38876 | 93.61999 | 34041 ft | 360 kts | 259° |
| 2026-04-26 12:15 | 30.38483 | 93.56298 | 34034 ft | 357 kts | 283° |
| 2026-04-26 12:15 | 30.39371 | 93.53627 | 34028 ft | 357 kts | 300° |
| 2026-04-26 12:15 | 30.40964 | 93.51413 | 34022 ft | 361 kts | 318° |
| 2026-04-26 12:15 | 30.43131 | 93.49919 | 33995 ft | 367 kts | 337° |
| 2026-04-26 12:16 | 30.45650 | 93.49353 | 33990 ft | 375 kts | 357° |
| 2026-04-26 12:16 | 30.48239 | 93.49843 | 33986 ft | 384 kts | 18° |
| 2026-04-26 12:16 | 30.50564 | 93.51420 | 34044 ft | 396 kts | 39° |
| 2026-04-26 12:16 | 30.52276 | 93.53908 | 34044 ft | 406 kts | 62° |
| 2026-04-26 12:17 | 30.53188 | 93.57016 | 34047 ft | 410 kts | 79° |
| 2026-04-26 12:17 | 30.53200 | 93.60308 | 34046 ft | 411 kts | 103° |
| 2026-04-26 12:17 | 30.52196 | 93.63379 | 34045 ft | 408 kts | 126° |
| 2026-04-26 12:17 | 30.50316 | 93.65777 | 34047 ft | 401 kts | 149° |
| 2026-04-26 12:18 | 30.47849 | 93.67170 | 34047 ft | 392 kts | 171° |
| 2026-04-26 12:18 | 30.45182 | 93.67426 | 34040 ft | 382 kts | 192° |
| 2026-04-26 12:18 | 30.42675 | 93.66594 | 34040 ft | 373 kts | 212° |
| 2026-04-26 12:18 | 30.40614 | 93.64847 | 34042 ft | 365 kts | 231° |
| 2026-04-26 12:19 | 30.39208 | 93.62456 | 34037 ft | 358 kts | 249° |
| 2026-04-26 12:19 | 30.37270 | 93.57076 | 34047 ft | 372 kts | 242° |
| 2026-04-26 12:19 | 30.35829 | 93.54526 | 34047 ft | 384 kts | 237° |
| 2026-04-26 12:20 | 30.34200 | 93.52026 | 34016 ft | 394 kts | 234° |
| 2026-04-26 12:20 | 30.30749 | 93.46905 | 34013 ft | 409 kts | 234° |
| 2026-04-26 12:21 | 30.27376 | 93.41565 | 34017 ft | 412 kts | 237° |
| 2026-04-26 12:21 | 30.24138 | 93.36147 | 33991 ft | 412 kts | 237° |
| 2026-04-26 12:22 | 30.20885 | 93.30691 | 33996 ft | 412 kts | 237° |
| 2026-04-26 12:22 | 30.17595 | 93.25257 | 33993 ft | 412 kts | 237° |
| 2026-04-26 12:23 | 30.14295 | 93.19837 | 33993 ft | 412 kts | 237° |
| 2026-04-26 12:23 | 30.10993 | 93.14417 | 33980 ft | 412 kts | 237° |
| 2026-04-26 12:24 | 30.07693 | 93.09002 | 33971 ft | 412 kts | 237° |
| 2026-04-26 12:24 | 30.04392 | 93.03586 | 33977 ft | 412 kts | 237° |
| 2026-04-26 12:25 | 29.99462 | 92.95505 | 33989 ft | 412 kts | 237° |
| 2026-04-26 12:25 | 29.96162 | 92.90106 | 33998 ft | 412 kts | 237° |
| 2026-04-26 12:26 | 29.92860 | 92.84703 | 34013 ft | 412 kts | 237° |
| 2026-04-26 12:26 | 29.89559 | 92.79307 | 34018 ft | 411 kts | 237° |
| 2026-04-26 12:27 | 29.86248 | 92.73926 | 34024 ft | 411 kts | 236° |
| 2026-04-26 12:27 | 29.82934 | 92.68556 | 34024 ft | 411 kts | 236° |
| 2026-04-26 12:28 | 29.79622 | 92.63175 | 34019 ft | 411 kts | 236° |
| 2026-04-26 12:28 | 29.76312 | 92.57795 | 34012 ft | 412 kts | 236° |
| 2026-04-26 12:29 | 29.72990 | 92.52418 | 34016 ft | 412 kts | 236° |
| 2026-04-26 12:30 | 29.68021 | 92.44387 | 34020 ft | 412 kts | 236° |
| 2026-04-26 12:30 | 29.64686 | 92.39015 | 34015 ft | 412 kts | 236° |
| 2026-04-26 12:31 | 29.59696 | 92.30959 | 34015 ft | 412 kts | 236° |
| 2026-04-26 12:31 | 29.56366 | 92.25591 | 33997 ft | 412 kts | 235° |
| 2026-04-26 12:32 | 29.53052 | 92.20268 | 34001 ft | 412 kts | 235° |
| 2026-04-26 12:33 | 29.48029 | 92.12209 | 33962 ft | 414 kts | 236° |
| 2026-04-26 12:33 | 29.44657 | 92.06810 | 33522 ft | 417 kts | 236° |
| 2026-04-26 12:33 | 29.42968 | 92.04110 | 33068 ft | 415 kts | 235° |
| 2026-04-26 12:34 | 29.41292 | 92.01430 | 32625 ft | 412 kts | 236° |
| 2026-04-26 12:34 | 29.39627 | 91.98767 | 32189 ft | 409 kts | 236° |
| 2026-04-26 12:34 | 29.37974 | 91.96122 | 31730 ft | 407 kts | 235° |
| 2026-04-26 12:34 | 29.36330 | 91.93497 | 31307 ft | 404 kts | 235° |
| 2026-04-26 12:35 | 29.34692 | 91.90888 | 30872 ft | 402 kts | 235° |
| 2026-04-26 12:35 | 29.33062 | 91.88294 | 30458 ft | 399 kts | 235° |
| 2026-04-26 12:35 | 29.31445 | 91.85718 | 30053 ft | 397 kts | 235° |
| 2026-04-26 12:35 | 29.29833 | 91.83155 | 29605 ft | 395 kts | 235° |
| 2026-04-26 12:36 | 29.28241 | 91.80605 | 29201 ft | 391 kts | 237° |
| 2026-04-26 12:36 | 29.26965 | 91.77877 | 28815 ft | 387 kts | 249° |
| 2026-04-26 12:36 | 29.26229 | 91.74937 | 28436 ft | 383 kts | 261° |
| 2026-04-26 12:36 | 29.26032 | 91.71912 | 28047 ft | 381 kts | 271° |
| 2026-04-26 12:37 | 29.26255 | 91.68901 | 27672 ft | 378 kts | 275° |
| 2026-04-26 12:37 | 29.26511 | 91.65913 | 27274 ft | 376 kts | 275° |
| 2026-04-26 12:37 | 29.26764 | 91.62942 | 26889 ft | 373 kts | 275° |
| 2026-04-26 12:37 | 29.27016 | 91.59986 | 26493 ft | 371 kts | 275° |
| 2026-04-26 12:38 | 29.27262 | 91.57090 | 26107 ft | 369 kts | 274° |
| 2026-04-26 12:38 | 29.27508 | 91.54173 | 25711 ft | 367 kts | 274° |
| 2026-04-26 12:38 | 29.27756 | 91.51234 | 25299 ft | 365 kts | 275° |
| 2026-04-26 12:38 | 29.27989 | 91.48381 | 24899 ft | 364 kts | 274° |
| 2026-04-26 12:39 | 29.28210 | 91.45502 | 24479 ft | 362 kts | 274° |
| 2026-04-26 12:39 | 29.28422 | 91.42636 | 24066 ft | 360 kts | 274° |
| 2026-04-26 12:39 | 29.28628 | 91.39779 | 23669 ft | 359 kts | 274° |
| 2026-04-26 12:39 | 29.28834 | 91.36946 | 23197 ft | 357 kts | 274° |
| 2026-04-26 12:40 | 29.29040 | 91.34121 | 22790 ft | 353 kts | 274° |
| 2026-04-26 12:40 | 29.29244 | 91.31319 | 22294 ft | 352 kts | 274° |
| 2026-04-26 12:40 | 29.29448 | 91.28534 | 21883 ft | 349 kts | 274° |
| 2026-04-26 12:40 | 29.29654 | 91.25776 | 21469 ft | 346 kts | 274° |
| 2026-04-26 12:41 | 29.29862 | 91.23040 | 21064 ft | 343 kts | 274° |
| 2026-04-26 12:41 | 29.30067 | 91.20329 | 20647 ft | 340 kts | 274° |
| 2026-04-26 12:41 | 29.30262 | 91.17638 | 20243 ft | 338 kts | 274° |
| 2026-04-26 12:41 | 29.30454 | 91.14960 | 19843 ft | 336 kts | 274° |
| 2026-04-26 12:42 | 29.30645 | 91.12303 | 19448 ft | 334 kts | 273° |
| 2026-04-26 12:42 | 29.30835 | 91.09654 | 19049 ft | 333 kts | 273° |
| 2026-04-26 12:42 | 29.30961 | 91.07908 | 18786 ft | 332 kts | 273° |
| 2026-04-26 12:42 | 29.31151 | 91.05278 | 18393 ft | 331 kts | 273° |
| 2026-04-26 12:43 | 29.31420 | 91.01771 | 17840 ft | 330 kts | 275° |
| 2026-04-26 12:43 | 29.31801 | 90.99273 | 17725 ft | 313 kts | 281° |
| 2026-04-26 12:43 | 29.32349 | 90.96931 | 17611 ft | 296 kts | 285° |
| 2026-04-26 12:43 | 29.33030 | 90.94765 | 17488 ft | 284 kts | 291° |
| 2026-04-26 12:44 | 29.33833 | 90.92770 | 17369 ft | 268 kts | 295° |
| 2026-04-26 12:44 | 29.34715 | 90.90961 | 17265 ft | 252 kts | 299° |
| 2026-04-26 12:44 | 29.35339 | 90.89842 | 17245 ft | 244 kts | 302° |
| 2026-04-26 12:44 | 29.36308 | 90.88287 | 17096 ft | 234 kts | 304° |
| 2026-04-26 12:45 | 29.37146 | 90.86760 | 16869 ft | 221 kts | 288° |
| 2026-04-26 12:45 | 29.37397 | 90.84547 | 16444 ft | 205 kts | 265° |
| 2026-04-26 12:45 | 29.37337 | 90.83485 | 16257 ft | 198 kts | 264° |
| 2026-04-26 12:45 | 29.37198 | 90.81983 | 16002 ft | 181 kts | 261° |
| 2026-04-26 12:46 | 29.37012 | 90.80592 | 15754 ft | 174 kts | 259° |
| 2026-04-26 12:46 | 29.36772 | 90.79239 | 15494 ft | 174 kts | 257° |
| 2026-04-26 12:46 | 29.36465 | 90.77899 | 15270 ft | 173 kts | 251° |
| 2026-04-26 12:46 | 29.35880 | 90.76704 | 15030 ft | 172 kts | 231° |
| 2026-04-26 12:47 | 29.34971 | 90.75782 | 14861 ft | 180 kts | 211° |
| 2026-04-26 12:47 | 29.33815 | 90.75276 | 14490 ft | 178 kts | 191° |
| 2026-04-26 12:47 | 29.32602 | 90.75250 | 14276 ft | 177 kts | 171° |
| 2026-04-26 12:47 | 29.31443 | 90.75708 | 14051 ft | 177 kts | 150° |
| 2026-04-26 12:48 | 29.30493 | 90.76590 | 13797 ft | 177 kts | 130° |
| 2026-04-26 12:48 | 29.29855 | 90.77806 | 13615 ft | 181 kts | 109° |
| 2026-04-26 12:48 | 29.29626 | 90.79207 | 13381 ft | 179 kts | 88° |
| 2026-04-26 12:48 | 29.29655 | 90.80630 | 13116 ft | 178 kts | 86° |
| 2026-04-26 12:49 | 29.29678 | 90.82050 | 12778 ft | 178 kts | 86° |
| 2026-04-26 12:49 | 29.29698 | 90.83462 | 12501 ft | 177 kts | 87° |
| 2026-04-26 12:49 | 29.29706 | 90.84872 | 12277 ft | 178 kts | 87° |
| 2026-04-26 12:49 | 29.29739 | 90.86284 | 12016 ft | 177 kts | 87° |
| 2026-04-26 12:50 | 29.29760 | 90.87686 | 11785 ft | 175 kts | 88° |
| 2026-04-26 12:50 | 29.29776 | 90.89086 | 11569 ft | 176 kts | 88° |
| 2026-04-26 12:50 | 29.29798 | 90.90413 | 11510 ft | 154 kts | 90° |
| 2026-04-26 12:50 | 29.29826 | 90.91661 | 11611 ft | 163 kts | 90° |
| 2026-04-26 12:51 | 29.29850 | 90.93003 | 12005 ft | 173 kts | 90° |
| 2026-04-26 12:51 | 29.29869 | 90.94396 | 12740 ft | 176 kts | 89° |
| 2026-04-26 12:51 | 29.29889 | 90.95824 | 13240 ft | 186 kts | 89° |
| 2026-04-26 12:51 | 29.29912 | 90.97359 | 13333 ft | 200 kts | 89° |
| 2026-04-26 12:52 | 29.29933 | 90.98994 | 13422 ft | 216 kts | 89° |
| 2026-04-26 12:52 | 29.30097 | 91.00769 | 13511 ft | 233 kts | 77° |
| 2026-04-26 12:52 | 29.30604 | 91.02610 | 13586 ft | 253 kts | 65° |
| 2026-04-26 12:52 | 29.31387 | 91.04452 | 13938 ft | 259 kts | 68° |
| 2026-04-26 12:53 | 29.31859 | 91.06462 | 14505 ft | 264 kts | 82° |
| 2026-04-26 12:53 | 29.31899 | 91.08578 | 15079 ft | 268 kts | 97° |
| 2026-04-26 12:53 | 29.31497 | 91.10668 | 15657 ft | 271 kts | 109° |
| 2026-04-26 12:53 | 29.30996 | 91.12761 | 16263 ft | 273 kts | 105° |
| 2026-04-26 12:54 | 29.30596 | 91.14903 | 16889 ft | 275 kts | 102° |
| 2026-04-26 12:54 | 29.30310 | 91.17063 | 17484 ft | 279 kts | 98° |
| 2026-04-26 12:54 | 29.30126 | 91.19292 | 18068 ft | 283 kts | 96° |
| 2026-04-26 12:54 | 29.29965 | 91.21557 | 18592 ft | 286 kts | 96° |
| 2026-04-26 12:55 | 29.29801 | 91.23840 | 19140 ft | 289 kts | 96° |
| 2026-04-26 12:55 | 29.29646 | 91.26152 | 19672 ft | 292 kts | 92° |
| 2026-04-26 12:55 | 29.30016 | 91.28437 | 20153 ft | 296 kts | 64° |
| 2026-04-26 12:55 | 29.31222 | 91.30340 | 20627 ft | 297 kts | 38° |
| 2026-04-26 12:56 | 29.33022 | 91.31458 | 21103 ft | 295 kts | 11° |
| 2026-04-26 12:56 | 29.35057 | 91.31782 | 21417 ft | 297 kts | 1° |
| 2026-04-26 12:56 | 29.37114 | 91.31920 | 21472 ft | 296 kts | 360° |
| 2026-04-26 12:56 | 29.39140 | 91.32030 | 21480 ft | 295 kts | 360° |
| 2026-04-26 12:57 | 29.41171 | 91.31915 | 21487 ft | 290 kts | 341° |
| 2026-04-26 12:57 | 29.42928 | 91.30891 | 21483 ft | 282 kts | 314° |
| 2026-04-26 12:57 | 29.44061 | 91.29105 | 21486 ft | 276 kts | 288° |
| 2026-04-26 12:58 | 29.44121 | 91.24796 | 21484 ft | 275 kts | 258° |
| 2026-04-26 12:58 | 29.43759 | 91.22639 | 21475 ft | 275 kts | 258° |
| 2026-04-26 12:58 | 29.43396 | 91.20483 | 21465 ft | 275 kts | 258° |
| 2026-04-26 12:58 | 29.43034 | 91.18328 | 21467 ft | 275 kts | 258° |
| 2026-04-26 12:59 | 29.42670 | 91.16172 | 21474 ft | 275 kts | 258° |
| 2026-04-26 12:59 | 29.42307 | 91.14016 | 21476 ft | 275 kts | 258° |
| 2026-04-26 12:59 | 29.41950 | 91.11893 | 21146 ft | 277 kts | 258° |
| 2026-04-26 12:59 | 29.41575 | 91.09660 | 20268 ft | 291 kts | 258° |
| 2026-04-26 13:00 | 29.41190 | 91.07367 | 19800 ft | 289 kts | 258° |
| 2026-04-26 13:00 | 29.40819 | 91.05157 | 19616 ft | 274 kts | 258° |
| 2026-04-26 13:00 | 29.40468 | 91.03071 | 19487 ft | 257 kts | 258° |
| 2026-04-26 13:00 | 29.40137 | 91.01116 | 19363 ft | 243 kts | 258° |
| 2026-04-26 13:01 | 29.39826 | 90.99274 | 19182 ft | 230 kts | 258° |
| 2026-04-26 13:01 | 29.39518 | 90.97459 | 18630 ft | 234 kts | 257° |
| 2026-04-26 13:01 | 29.39203 | 90.95611 | 18067 ft | 237 kts | 257° |
| 2026-04-26 13:01 | 29.38884 | 90.93741 | 17422 ft | 240 kts | 258° |
| 2026-04-26 13:02 | 29.38562 | 90.91847 | 16781 ft | 244 kts | 258° |
| 2026-04-26 13:02 | 29.38245 | 90.89969 | 16349 ft | 238 kts | 258° |
| 2026-04-26 13:02 | 29.37939 | 90.88164 | 16174 ft | 222 kts | 258° |
| 2026-04-26 13:02 | 29.37675 | 90.86491 | 16063 ft | 207 kts | 260° |
| 2026-04-26 13:03 | 29.37471 | 90.84869 | 15976 ft | 205 kts | 262° |
| 2026-04-26 13:03 | 29.37320 | 90.83255 | 15727 ft | 198 kts | 264° |
| 2026-04-26 13:03 | 29.37176 | 90.81724 | 15476 ft | 187 kts | 261° |
| 2026-04-26 13:03 | 29.36972 | 90.80309 | 15251 ft | 177 kts | 259° |
| 2026-04-26 13:04 | 29.36710 | 90.78927 | 15035 ft | 173 kts | 256° |
| 2026-04-26 13:04 | 29.36373 | 90.77632 | 14821 ft | 171 kts | 245° |
| 2026-04-26 13:04 | 29.35713 | 90.76497 | 14606 ft | 172 kts | 227° |
| 2026-04-26 13:04 | 29.34753 | 90.75667 | 14387 ft | 175 kts | 207° |
| 2026-04-26 13:05 | 29.33598 | 90.75252 | 14185 ft | 175 kts | 187° |
| 2026-04-26 13:05 | 29.32387 | 90.75307 | 13974 ft | 175 kts | 167° |
| 2026-04-26 13:05 | 29.31265 | 90.75835 | 13759 ft | 175 kts | 147° |
| 2026-04-26 13:05 | 29.30368 | 90.76763 | 13603 ft | 175 kts | 126° |
| 2026-04-26 13:06 | 29.29794 | 90.77999 | 13382 ft | 177 kts | 105° |
| 2026-04-26 13:06 | 29.29628 | 90.79380 | 13159 ft | 175 kts | 86° |
| 2026-04-26 13:06 | 29.29659 | 90.80775 | 12872 ft | 175 kts | 86° |
| 2026-04-26 13:06 | 29.29681 | 90.82165 | 12585 ft | 174 kts | 86° |
| 2026-04-26 13:07 | 29.29702 | 90.83555 | 12355 ft | 175 kts | 86° |
| 2026-04-26 13:07 | 29.29707 | 90.84940 | 12146 ft | 174 kts | 88° |
| 2026-04-26 13:07 | 29.29727 | 90.86328 | 11924 ft | 174 kts | 87° |
| 2026-04-26 13:07 | 29.29756 | 90.87704 | 11751 ft | 173 kts | 88° |
| 2026-04-26 13:08 | 29.29774 | 90.89083 | 11568 ft | 173 kts | 88° |
| 2026-04-26 13:08 | 29.29796 | 90.90406 | 11510 ft | 147 kts | 89° |
| 2026-04-26 13:08 | 29.29807 | 90.91226 | 11508 ft | 59 kts | 89° |
| 2026-04-26 13:08 | 29.29814 | 90.91660 | 11510 ft | 57 kts | 89° |
| 2026-04-26 13:09 | 29.29804 | 90.91976 | 11499 ft | 26 kts | 107° |
| 2026-04-26 13:09 | 29.29726 | 90.92160 | 11502 ft | 19 kts | 115° |
| 2026-04-26 13:09 | 29.29661 | 90.92187 | 11499 ft | 13 kts | 254° |
| 2026-04-26 13:09 | 29.29655 | 90.92067 | 11503 ft | 18 kts | 269° |
| 2026-04-26 13:10 | 29.29652 | 90.91892 | 11499 ft | 24 kts | 269° |
| 2026-04-26 13:10 | 29.29649 | 90.91690 | 11502 ft | 24 kts | 269° |
| 2026-04-26 13:10 | 29.29647 | 90.91567 | 11510 ft | 15 kts | 269° |
| 2026-04-26 13:10 | 29.29645 | 90.91420 | 11510 ft | 23 kts | 269° |
| 2026-04-26 13:11 | 29.29642 | 90.91215 | 11512 ft | 28 kts | 269° |
| 2026-04-26 13:11 | 29.29639 | 90.90991 | 11512 ft | 29 kts | 269° |
| 2026-04-26 13:11 | 29.29635 | 90.90756 | 11508 ft | 27 kts | 269° |
| 2026-04-26 13:11 | 29.29631 | 90.90544 | 11512 ft | 23 kts | 268° |
| 2026-04-26 13:12 | 29.29628 | 90.90357 | 11512 ft | 24 kts | 269° |
| 2026-04-26 13:12 | 29.29626 | 90.90155 | 11512 ft | 26 kts | 269° |
| 2026-04-26 13:12 | 29.29597 | 90.90007 | 11513 ft | 14 kts | 198° |
| 2026-04-26 13:12 | 29.29500 | 90.89983 | 11503 ft | 15 kts | 204° |
| 2026-04-26 13:13 | 29.29432 | 90.89983 | 11512 ft | 2 kts | 181° |
| 2026-04-26 13:13 | 29.29430 | 90.89983 | 11512 ft | 0 kts | 181° |